Time;durP1;ratioP1;P1;durP2;ratioP2;P2;SDS_P1;SDS_P2;PMS_P1;PMS_P2;Temp;Humidity;BMP_temperature;BMP_pressure;BME280_temperature;BME280_humidity;BME280_pressure;Samples;Min_cycle;Max_cycle;Signal;HPM_P1;HPM_P2
2022/11/20 00:00:37;;;;;;;1999.90;999.90;;;;;;;6.37;100.00;94456.50;4975734;28;20206;-61
2022/11/20 00:03:03;;;;;;;1999.90;999.90;;;;;;;6.34;100.00;94451.91;4975241;28;20668;-60
2022/11/20 00:05:28;;;;;;;1999.90;999.90;;;;;;;6.40;100.00;94455.72;4975369;28;20207;-59
2022/11/20 00:07:53;;;;;;;1999.90;999.90;;;;;;;6.41;100.00;94463.47;4975502;28;20187;-60
2022/11/20 00:10:19;;;;;;;1999.90;999.90;;;;;;;6.43;100.00;94460.34;4975652;28;20190;-59
2022/11/20 00:12:44;;;;;;;1999.90;999.90;;;;;;;6.49;100.00;94475.03;4975887;28;20206;-60
2022/11/20 00:15:10;;;;;;;1999.90;999.90;;;;;;;6.52;100.00;94479.66;4976022;28;20174;-60
2022/11/20 00:17:35;;;;;;;1999.90;999.90;;;;;;;6.56;100.00;94481.16;4975445;28;20299;-60
2022/11/20 00:20:00;;;;;;;1999.90;999.90;;;;;;;6.58;100.00;94486.19;4976206;28;20568;-60
2022/11/20 00:22:26;;;;;;;1999.90;999.90;;;;;;;6.61;100.00;94490.81;4975779;28;20202;-62
2022/11/20 00:24:51;;;;;;;1999.90;999.90;;;;;;;6.63;100.00;94491.19;4975926;28;20232;-60
2022/11/20 00:27:16;;;;;;;1999.90;999.90;;;;;;;6.62;100.00;94495.06;4975274;28;20175;-60
2022/11/20 00:29:42;;;;;;;1999.90;999.90;;;;;;;6.57;100.00;94490.06;4975555;28;20173;-60
2022/11/20 00:32:07;;;;;;;1999.90;999.90;;;;;;;6.58;100.00;94505.16;4975392;28;20195;-61
2022/11/20 00:34:32;;;;;;;1999.90;999.90;;;;;;;6.58;100.00;94505.16;4976167;28;20205;-60
2022/11/20 00:36:58;;;;;;;1999.90;999.90;;;;;;;6.59;100.00;94512.91;4975120;28;20183;-60
2022/11/20 00:39:23;;;;;;;1999.90;999.90;;;;;;;6.62;100.00;94517.53;4975288;28;20177;-61
2022/11/20 00:41:48;;;;;;;1999.90;999.90;;;;;;;6.65;100.00;94515.97;4974794;28;20272;-59
2022/11/20 00:44:14;;;;;;;1999.90;999.90;;;;;;;6.65;100.00;94513.25;4975175;28;20243;-59
2022/11/20 00:46:39;;;;;;;1999.90;999.90;;;;;;;6.63;100.00;94512.91;4975530;28;20186;-59
2022/11/20 00:49:04;;;;;;;1999.90;999.90;;;;;;;6.62;100.00;94524.91;4974194;28;20247;-59
2022/11/20 00:51:30;;;;;;;1999.90;999.90;;;;;;;6.58;100.00;94521.44;4975033;28;20242;-59
2022/11/20 00:53:59;;;;;;;1999.90;999.90;;;;;;;6.59;100.00;94522.97;4978607;28;20218;-59
2022/11/20 00:56:25;;;;;;;1999.90;999.90;;;;;;;6.61;100.00;94520.66;4978441;28;20189;-59
2022/11/20 00:58:51;;;;;;;1999.90;999.90;;;;;;;6.62;100.00;94522.19;4978298;28;20238;-65
2022/11/20 01:01:19;;;;;;;1999.90;999.90;;;;;;;6.59;100.00;94528.41;4978505;28;20213;-61
2022/11/20 01:03:49;;;;;;;1999.90;999.90;;;;;;;6.60;100.00;94525.28;4978441;28;20231;-60
2022/11/20 01:06:23;;;;;;;1999.90;999.90;;;;;;;6.57;100.00;94528.03;4977919;28;20183;-60
2022/11/20 01:08:50;;;;;;;1999.90;999.90;;;;;;;6.59;100.00;94528.41;4978368;28;20173;-60
2022/11/20 01:11:19;;;;;;;1999.90;999.90;;;;;;;6.60;100.00;94536.13;4978671;28;20182;-60
2022/11/20 01:13:46;;;;;;;1999.90;999.90;;;;;;;6.62;100.00;94538.47;4978031;28;20278;-60
2022/11/20 01:16:18;;;;;;;1999.90;999.90;;;;;;;6.61;100.00;94547.78;4977647;28;20174;-59
2022/11/20 01:18:46;;;;;;;1999.90;999.90;;;;;;;6.61;100.00;94545.84;4978167;28;20193;-60
2022/11/20 01:21:18;;;;;;;1999.90;999.90;;;;;;;6.63;100.00;94550.88;4977615;28;20181;-60
2022/11/20 01:23:46;;;;;;;1999.90;999.90;;;;;;;6.65;100.00;94548.50;4977573;28;20259;-59
2022/11/20 01:26:14;;;;;;;1999.90;999.90;;;;;;;6.64;100.00;94553.16;4978200;28;20184;-61
2022/11/20 01:28:41;;;;;;;1999.90;999.90;;;;;;;6.65;100.00;94552.00;4978346;28;20180;-60
2022/11/20 01:31:34;;;;;;;1999.90;999.90;;;;;;;6.65;100.00;94554.72;4977775;28;20169;-60
2022/11/20 01:34:06;;;;;;;1999.90;999.90;;;;;;;6.63;100.00;94556.28;4992586;28;20210;-59
2022/11/20 01:36:33;;;;;;;1999.90;999.90;;;;;;;6.68;100.00;94553.16;4978184;28;20175;-61
2022/11/20 01:39:04;;;;;;;1999.90;999.90;;;;;;;6.69;100.00;94554.69;4977800;28;20182;-61
2022/11/20 01:44:18;;;;;;;1999.90;999.90;;;;;;;6.70;100.00;94561.66;4995100;28;20183;-61
2022/11/20 01:46:56;;;;;;;1999.90;999.90;;;;;;;6.66;100.00;94566.31;4977468;28;20183;-61
2022/11/20 01:49:31;;;;;;;1999.90;999.90;;;;;;;6.64;100.00;94563.25;4977770;28;20179;-67
2022/11/20 01:52:02;;;;;;;1999.90;999.90;;;;;;;6.62;100.00;94563.66;4977933;28;20191;-60
2022/11/20 01:54:36;;;;;;;1999.90;999.90;;;;;;;6.65;100.00;94570.22;4977196;28;20239;-60
2022/11/20 01:57:06;;;;;;;1999.90;999.90;;;;;;;6.64;100.00;94555.13;4978330;28;20246;-59
2022/11/20 01:59:31;;;;;;;1999.90;999.90;;;;;;;6.62;100.00;94560.94;4977817;28;20174;-59
2022/11/20 02:01:57;;;;;;;1999.90;999.90;;;;;;;6.57;100.00;94564.09;4981033;28;20565;-59
2022/11/20 02:04:24;;;;;;;1999.90;999.90;;;;;;;6.60;100.00;94565.22;4980815;28;20204;-59
2022/11/20 02:07:11;;;;;;;1999.90;999.90;;;;;;;6.63;100.00;94569.84;4981077;28;20212;-59
2022/11/20 02:09:36;;;;;;;1999.90;999.90;;;;;;;6.55;100.00;94555.56;4981454;28;20172;-59
2022/11/20 02:12:03;;;;;;;1999.90;999.90;;;;;;;6.54;100.00;94566.81;4981921;28;20191;-60
2022/11/20 02:14:28;;;;;;;1999.90;999.90;;;;;;;6.55;100.00;94562.91;4980672;28;20181;-60
2022/11/20 02:16:55;;;;;;;1999.90;999.90;;;;;;;6.53;100.00;94562.56;4980857;28;20249;-60
2022/11/20 02:19:31;;;;;;;1999.90;999.90;;;;;;;6.49;100.00;94562.56;4980769;28;20229;-60
2022/11/20 02:22:05;;;;;;;1999.90;999.90;;;;;;;6.46;100.00;94562.59;4980667;28;20207;-61
2022/11/20 02:24:31;;;;;;;1999.90;999.90;;;;;;;6.45;100.00;94561.06;4997888;28;20170;-61
2022/11/20 02:27:04;;;;;;;1999.90;999.90;;;;;;;6.48;100.00;94565.66;4980856;28;20188;-60
2022/11/20 02:29:46;;;;;;;1999.90;999.90;;;;;;;6.47;100.00;94558.72;4981476;28;20173;-60
2022/11/20 02:32:35;;;;;;;1999.90;999.90;;;;;;;6.44;100.00;94559.50;4980447;28;20175;-60
2022/11/20 02:35:29;;;;;;;1999.90;999.90;;;;;;;6.47;100.00;94567.63;4997582;28;20170;-60
2022/11/20 02:37:56;;;;;;;1999.90;999.90;;;;;;;6.41;100.00;94566.50;4980769;28;20205;-60
2022/11/20 02:40:22;;;;;;;1999.90;999.90;;;;;;;6.38;100.00;94558.38;4980454;28;20179;-59
2022/11/20 02:42:51;;;;;;;1999.90;999.90;;;;;;;6.38;100.00;94561.84;4980288;28;20193;-59
2022/11/20 02:45:17;;;;;;;1999.90;999.90;;;;;;;6.37;100.00;94565.75;4980373;28;20175;-60
2022/11/20 02:47:42;;;;;;;1999.90;999.90;;;;;;;6.35;100.00;94567.31;4980829;28;20182;-61
2022/11/20 02:50:08;;;;;;;1999.90;999.90;;;;;;;6.31;100.00;94558.44;4980513;28;20173;-60
2022/11/20 02:52:33;;;;;;;1999.90;999.90;;;;;;;6.32;100.00;94557.25;4980261;28;20180;-60
2022/11/20 02:54:58;;;;;;;1999.90;999.90;;;;;;;6.31;100.00;94561.13;4979465;28;20262;-60
2022/11/20 02:57:24;;;;;;;1999.90;999.90;;;;;;;6.33;100.00;94558.78;4980654;28;20185;-59
2022/11/20 02:59:49;;;;;;;1999.90;999.90;;;;;;;6.35;100.00;94554.50;4980106;28;20175;-59
2022/11/20 03:02:14;;;;;;;1999.90;999.90;;;;;;;6.34;100.00;94557.66;4980094;28;20208;-59
2022/11/20 03:04:40;;;;;;;1999.90;999.90;;;;;;;6.33;100.00;94558.78;4979861;28;20203;-60
2022/11/20 03:07:05;;;;;;;1999.90;999.90;;;;;;;6.35;100.00;94553.75;4979982;28;20178;-60
2022/11/20 03:09:30;;;;;;;1999.90;999.90;;;;;;;6.37;100.00;94554.13;4979756;28;20175;-60
2022/11/20 03:11:56;;;;;;;1999.90;999.90;;;;;;;6.35;100.00;94557.22;4979192;28;20201;-59
2022/11/20 03:14:21;;;;;;;1999.90;999.90;;;;;;;6.36;100.00;94552.59;4979787;28;20183;-59
2022/11/20 03:16:47;;;;;;;1999.90;999.90;;;;;;;6.38;100.00;94552.97;4979802;28;20199;-59
2022/11/20 03:19:12;;;;;;;1999.90;999.90;;;;;;;6.37;100.00;94556.81;4979534;28;20176;-60
2022/11/20 03:21:38;;;;;;;1999.90;999.90;;;;;;;6.37;100.00;94562.25;4979434;28;20240;-59
2022/11/20 03:24:03;;;;;;;1999.90;999.90;;;;;;;6.36;100.00;94558.00;4979584;28;20279;-59
2022/11/20 03:26:29;;;;;;;1999.90;999.90;;;;;;;6.41;100.00;94560.31;4979639;28;20269;-60
2022/11/20 03:28:57;;;;;;;1999.90;999.90;;;;;;;6.39;100.00;94563.41;4979552;28;20182;-59
2022/11/20 03:31:25;;;;;;;1999.90;999.90;;;;;;;6.33;100.00;94569.63;4979996;28;20202;-59
2022/11/20 03:33:51;;;;;;;1999.90;999.90;;;;;;;6.38;100.00;94569.22;4979190;28;20181;-59
2022/11/20 03:36:18;;;;;;;1999.90;999.90;;;;;;;6.41;100.00;94571.16;4979033;28;20186;-59
2022/11/20 03:38:44;;;;;;;1999.90;999.90;;;;;;;6.40;100.00;94580.44;4979312;28;20223;-59
2022/11/20 03:41:14;;;;;;;1999.90;999.90;;;;;;;6.39;100.00;94584.31;4979273;28;20224;-60
2022/11/20 03:43:40;;;;;;;1999.90;999.90;;;;;;;6.39;100.00;94584.31;4979356;28;20188;-61
2022/11/20 03:46:07;;;;;;;1999.90;999.90;;;;;;;6.36;100.00;94580.47;4979294;28;20269;-59
2022/11/20 03:48:32;;;;;;;1999.90;999.90;;;;;;;6.37;100.00;94582.00;4979041;28;20174;-60
2022/11/20 03:51:16;;;;;;;1999.90;999.90;;;;;;;6.36;100.00;94591.31;4978918;28;20177;-59
2022/11/20 03:53:43;;;;;;;1999.90;999.90;;;;;;;6.38;100.00;94590.94;4978760;28;20257;-60
2022/11/20 03:56:09;;;;;;;1999.90;999.90;;;;;;;6.37;100.00;94594.78;4979578;28;20183;-60
2022/11/20 03:58:45;;;;;;;1999.90;999.90;;;;;;;6.37;100.00;94592.84;4978880;28;20183;-60
2022/11/20 04:01:13;;;;;;;1999.90;999.90;;;;;;;6.39;100.00;94600.59;4979393;28;20243;-64
2022/11/20 04:03:40;;;;;;;1999.90;999.90;;;;;;;6.38;100.00;94590.94;4978803;28;20237;-60
2022/11/20 04:06:14;;;;;;;1999.90;999.90;;;;;;;6.35;100.00;94610.69;4978967;28;20176;-60
2022/11/20 04:08:40;;;;;;;1999.90;999.90;;;;;;;6.37;100.00;94613.75;4978968;28;20184;-60
2022/11/20 04:11:13;;;;;;;1999.90;999.90;;;;;;;6.38;100.00;94620.75;4979418;28;20173;-60
2022/11/20 04:13:39;;;;;;;1999.90;999.90;;;;;;;6.35;100.00;94621.53;4979172;28;20175;-60
2022/11/20 04:16:06;;;;;;;1999.90;999.90;;;;;;;6.35;100.00;94626.97;4978892;28;20178;-59
2022/11/20 04:18:32;;;;;;;1999.90;999.90;;;;;;;6.37;100.00;94624.59;4978392;28;20180;-59
2022/11/20 04:20:58;;;;;;;1999.90;999.90;;;;;;;6.34;100.00;94622.72;4978493;28;20178;-60
2022/11/20 04:23:24;;;;;;;1999.90;999.90;;;;;;;6.33;100.00;94621.94;4978839;28;20206;-61
2022/11/20 04:25:49;;;;;;;1999.90;999.90;;;;;;;6.32;100.00;94622.31;4978846;28;20185;-62
2022/11/20 04:28:14;;;;;;;1999.90;999.90;;;;;;;6.32;100.00;94627.75;4978233;28;20184;-62
2022/11/20 04:30:40;;;;;;;1999.90;999.90;;;;;;;6.35;100.00;94626.97;4978242;28;20185;-62
2022/11/20 04:33:05;;;;;;;1999.90;999.90;;;;;;;6.35;100.00;94629.66;4978927;28;20185;-61
2022/11/20 04:35:34;;;;;;;1999.90;999.90;;;;;;;6.34;100.00;94637.00;4978080;28;20174;-61
2022/11/20 04:37:59;;;;;;;1999.90;999.90;;;;;;;6.30;100.00;94638.19;4979101;28;20172;-60
2022/11/20 04:40:24;;;;;;;1999.90;999.90;;;;;;;6.31;100.00;94628.91;4978196;28;20177;-64
2022/11/20 04:42:50;;;;;;;1999.90;999.90;;;;;;;6.33;100.00;94629.28;4978282;28;20225;-62
2022/11/20 04:45:15;;;;;;;1999.90;999.90;;;;;;;6.34;100.00;94633.56;4978329;28;20280;-64
2022/11/20 04:47:40;;;;;;;1999.90;999.90;;;;;;;6.33;100.00;94629.28;4978244;28;20174;-63
2022/11/20 04:50:06;;;;;;;1999.90;999.90;;;;;;;6.32;100.00;94630.44;4978715;28;20273;-62
2022/11/20 04:52:31;;;;;;;1999.90;999.90;;;;;;;6.31;100.00;94643.22;4977994;28;20191;-64
2022/11/20 04:54:57;;;;;;;1999.90;999.90;;;;;;;6.30;100.00;94638.97;4977598;28;20224;-63
2022/11/20 04:57:22;;;;;;;1999.90;999.90;;;;;;;6.30;100.00;94635.47;4978069;28;20182;-64
2022/11/20 04:59:47;;;;;;;1999.90;999.90;;;;;;;6.28;100.00;94635.13;4978242;28;20210;-59
2022/11/20 05:02:12;;;;;;;1999.90;999.90;;;;;;;6.23;100.00;94630.88;4978590;28;20672;-60
2022/11/20 05:04:38;;;;;;;1999.90;999.90;;;;;;;6.29;100.00;94623.88;4978181;28;20275;-59
2022/11/20 05:07:03;;;;;;;1999.90;999.90;;;;;;;6.26;100.00;94623.88;4977784;28;20181;-59
2022/11/20 05:09:29;;;;;;;1999.90;999.90;;;;;;;6.27;100.00;94620.78;4978053;28;20186;-59
2022/11/20 05:11:55;;;;;;;1999.90;999.90;;;;;;;6.30;100.00;94628.13;4977732;28;20193;-59
2022/11/20 05:14:20;;;;;;;1999.90;999.90;;;;;;;6.29;100.00;94610.34;4978489;28;20178;-60
2022/11/20 05:16:48;;;;;;;1999.90;999.90;;;;;;;6.30;100.00;94619.22;4978166;28;20179;-63
2022/11/20 05:19:14;;;;;;;1999.90;999.90;;;;;;;6.28;100.00;94616.16;4978085;28;20189;-62
2022/11/20 05:21:39;;;;;;;1999.90;999.90;;;;;;;6.30;100.00;94614.56;4978256;28;20210;-62
2022/11/20 05:24:05;;;;;;;1999.90;999.90;;;;;;;6.27;100.00;94615.34;4977949;28;20208;-62
2022/11/20 05:26:31;;;;;;;1999.90;999.90;;;;;;;6.27;100.00;94625.44;4977384;28;20184;-62
2022/11/20 05:28:56;;;;;;;1999.90;999.90;;;;;;;6.29;100.00;94617.69;4978002;28;20184;-62
2022/11/20 05:31:24;;;;;;;1999.90;999.90;;;;;;;6.31;100.00;94618.06;4978074;28;20183;-62
2022/11/20 05:33:49;;;;;;;1999.90;999.90;;;;;;;6.31;100.00;94631.63;4977692;28;20189;-64
2022/11/20 05:36:15;;;;;;;1999.90;999.90;;;;;;;6.33;100.00;94626.56;4980832;28;20179;-60
2022/11/20 05:38:41;;;;;;;1999.90;999.90;;;;;;;6.23;100.00;94624.69;4981652;28;20210;-60
2022/11/20 05:41:10;;;;;;;1999.90;999.90;;;;;;;6.25;100.00;94631.25;4981433;28;20186;-60
2022/11/20 05:43:36;;;;;;;1999.90;999.90;;;;;;;6.25;100.00;94636.69;4981093;28;20554;-60
2022/11/20 05:46:03;;;;;;;1999.90;999.90;;;;;;;6.26;100.00;94632.00;4981391;28;20184;-60
2022/11/20 05:48:28;;;;;;;1999.90;999.90;;;;;;;6.23;100.00;94641.72;4981739;28;20177;-60
2022/11/20 05:50:54;;;;;;;1999.90;999.90;;;;;;;6.28;100.00;94638.63;4981136;28;20231;-60
2022/11/20 05:53:19;;;;;;;1999.90;999.90;;;;;;;6.25;100.00;94644.81;4981435;28;20181;-63
2022/11/20 05:55:44;;;;;;;1999.90;999.90;;;;;;;6.23;100.00;94647.13;4981191;28;20574;-60
2022/11/20 05:58:10;;;;;;;1999.90;999.90;;;;;;;6.25;100.00;94642.09;4981373;28;20194;-59
2022/11/20 06:00:36;;;;;;;1999.90;999.90;;;;;;;6.23;100.00;94640.97;4980793;28;20179;-60
2022/11/20 06:03:01;;;;;;;1999.90;999.90;;;;;;;6.24;100.00;94642.50;4981222;28;20319;-60
2022/11/20 06:05:27;;;;;;;1999.90;999.90;;;;;;;6.24;100.00;94642.50;4980969;28;20205;-60
2022/11/20 06:07:55;;;;;;;1999.90;999.90;;;;;;;6.25;100.00;94646.75;4981702;28;20182;-59
2022/11/20 06:10:20;;;;;;;1999.90;999.90;;;;;;;6.24;100.00;94643.25;4981434;28;20269;-60
2022/11/20 06:12:46;;;;;;;1999.90;999.90;;;;;;;6.18;100.00;94646.78;4981042;28;20208;-60
2022/11/20 06:15:11;;;;;;;1999.90;999.90;;;;;;;6.19;100.00;94645.59;4980813;28;20208;-60
2022/11/20 06:17:36;;;;;;;1999.90;999.90;;;;;;;6.17;100.00;94639.81;4981165;28;20606;-60
2022/11/20 06:20:02;;;;;;;1999.90;999.90;;;;;;;6.16;100.00;94646.41;4980380;28;20186;-60
2022/11/20 06:22:27;;;;;;;1999.90;999.90;;;;;;;6.11;100.00;94639.44;4981129;28;20305;-59
2022/11/20 06:24:52;;;;;;;1999.90;999.90;;;;;;;6.09;100.00;94646.44;4980649;28;20228;-59
2022/11/20 06:27:18;;;;;;;1999.90;999.90;;;;;;;6.03;100.00;94648.00;4981497;28;20179;-59
2022/11/20 06:29:43;;;;;;;1999.90;999.90;;;;;;;5.97;100.00;94657.66;4980512;28;20189;-58
2022/11/20 06:32:09;;;;;;;1999.90;999.90;;;;;;;5.93;100.00;94654.19;4981333;28;20179;-61
2022/11/20 06:34:34;;;;;;;1999.90;999.90;;;;;;;5.87;100.00;94661.19;4981204;28;20187;-61
2022/11/20 06:36:59;;;;;;;1999.90;999.90;;;;;;;5.90;100.00;94665.84;4981102;28;20176;-60
2022/11/20 06:39:25;;;;;;;1999.90;999.90;;;;;;;5.88;100.00;94668.16;4980451;28;20177;-62
2022/11/20 06:41:50;;;;;;;1999.90;999.90;;;;;;;5.97;100.00;94682.06;4980385;28;20272;-61
2022/11/20 06:44:15;;;;;;;1999.90;999.90;;;;;;;5.94;100.00;94688.28;4981107;28;20259;-62
2022/11/20 06:46:40;;;;;;;1999.90;999.90;;;;;;;5.92;100.00;94685.97;4979298;28;20320;-59
2022/11/20 06:49:06;;;;;;;1999.90;999.90;;;;;;;5.93;100.00;94694.84;4980885;28;20182;-59
2022/11/20 06:51:31;;;;;;;1999.90;999.90;;;;;;;5.94;100.00;94704.53;4979915;28;20180;-60
2022/11/20 06:53:57;;;;;;;1999.90;999.90;;;;;;;5.99;100.00;94715.75;4979950;28;20283;-60
2022/11/20 06:56:22;;;;;;;1999.90;999.90;;;;;;;6.04;100.00;94714.56;4980026;28;20177;-60
2022/11/20 06:58:48;;;;;;;1999.90;999.90;;;;;;;6.07;100.00;94727.34;4980862;28;20173;-60
2022/11/20 07:01:15;;;;;;;1999.90;999.90;;;;;;;6.25;100.00;94738.91;4980156;28;20201;-61
2022/11/20 07:03:41;;;;;;;1999.90;999.90;;;;;;;7.00;100.00;94735.53;4980028;28;20547;-61
2022/11/20 07:06:07;;;;;;;1999.90;999.90;;;;;;;7.21;100.00;94754.38;4979823;28;20198;-60
2022/11/20 07:08:33;;;;;;;1999.90;999.90;;;;;;;8.24;100.00;94763.31;4980066;28;20175;-60
2022/11/20 07:11:00;;;;;;;1999.90;999.90;;;;;;;8.27;100.00;94781.56;4979620;28;20205;-72
2022/11/20 07:13:26;;;;;;;1999.90;999.90;;;;;;;8.08;100.00;94785.56;4979799;28;20187;-63
2022/11/20 07:15:52;;;;;;;1999.90;999.90;;;;;;;7.77;100.00;94785.84;4979852;28;20185;-63
2022/11/20 07:18:17;;;;;;;1999.90;999.90;;;;;;;8.00;100.00;94792.25;4980235;28;20182;-64
2022/11/20 07:20:43;;;;;;;1999.90;999.90;;;;;;;9.18;100.00;94791.44;4980211;28;20186;-64
2022/11/20 07:23:08;;;;;;;1999.90;999.90;;;;;;;9.32;100.00;94802.13;4979796;28;20207;-62
2022/11/20 07:25:33;;;;;;;1999.90;999.90;;;;;;;8.97;100.00;94808.81;4979280;28;20310;-62
2022/11/20 07:28:00;;;;;;;1999.90;999.90;;;;;;;8.49;100.00;94812.81;4980149;28;20184;-59
2022/11/20 07:30:28;;;;;;;1999.90;999.90;;;;;;;7.95;100.00;94813.66;4979136;28;20176;-60
2022/11/20 07:32:55;;;;;;;1999.90;999.90;;;;;;;7.69;100.00;94806.88;4979541;28;20180;-60
2022/11/20 07:35:21;;;;;;;1999.90;999.90;;;;;;;7.58;100.00;94811.56;4979114;28;20179;-59
2022/11/20 07:37:48;;;;;;;1999.90;999.90;;;;;;;7.37;100.00;94798.13;4979531;28;20187;-61
2022/11/20 07:40:14;;;;;;;1999.90;999.90;;;;;;;7.20;100.00;94793.56;4979467;28;20198;-61
2022/11/20 07:42:47;;;;;;;1999.90;999.90;;;;;;;7.04;100.00;94787.84;4979837;28;20269;-62
2022/11/20 07:45:12;;;;;;;1999.90;999.90;;;;;;;6.99;100.00;94769.25;4978973;28;20176;-63
2022/11/20 07:47:38;;;;;;;1999.90;999.90;;;;;;;7.05;100.00;94778.53;4979705;28;20187;-64
2022/11/20 07:50:03;;;;;;;1999.90;999.90;;;;;;;7.01;100.00;94771.56;4996123;28;20206;-63
2022/11/20 07:52:29;;;;;;;1999.90;999.90;;;;;;;7.00;100.00;94776.22;4979225;28;20181;-63
2022/11/20 07:54:54;;;;;;;1999.90;999.90;;;;;;;7.00;100.00;94776.22;4978918;28;20231;-63
2022/11/20 07:57:19;;;;;;;1999.90;999.90;;;;;;;7.07;100.00;94776.19;4978268;28;20171;-63
2022/11/20 07:59:45;;;;;;;1999.90;999.90;;;;;;;6.91;100.00;94772.41;4978958;28;20232;-62
2022/11/20 08:02:11;;;;;;;1999.90;999.90;;;;;;;7.00;100.00;94783.59;4978887;28;20236;-59
2022/11/20 08:04:36;;;;;;;1999.90;999.90;;;;;;;7.02;100.00;94784.72;4979295;28;20206;-60
2022/11/20 08:07:02;;;;;;;1999.90;999.90;;;;;;;6.96;100.00;94785.56;4978721;28;20182;-60
2022/11/20 08:09:28;;;;;;;1999.90;999.90;;;;;;;7.01;100.00;94783.19;4978830;28;20183;-60
2022/11/20 08:14:38;;;;;;;1999.90;999.90;;;;;;;7.04;100.00;94795.97;4996321;28;20232;-60
2022/11/20 08:17:03;;;;;;;1999.90;999.90;;;;;;;6.99;100.00;94785.53;4978612;28;20185;-60
2022/11/20 08:19:28;;;;;;;1999.90;999.90;;;;;;;7.10;100.00;94791.66;4978765;28;20186;-59
2022/11/20 08:21:55;;;;;;;1999.90;999.90;;;;;;;7.09;100.00;94790.13;4979409;28;20224;-63
2022/11/20 08:24:20;;;;;;;1999.90;999.90;;;;;;;7.11;100.00;94793.25;4978494;28;20190;-65
2022/11/20 08:26:45;;;;;;;1999.90;999.90;;;;;;;7.20;100.00;94799.00;4979067;28;20190;-63
2022/11/20 08:29:11;;;;;;;1999.90;999.90;;;;;;;7.20;100.00;94796.28;4978959;28;20238;-64
2022/11/20 08:31:36;;;;;;;1999.90;999.90;;;;;;;7.26;100.00;94810.22;4978627;28;20250;-63
2022/11/20 08:34:01;;;;;;;1999.90;999.90;;;;;;;7.34;100.00;94804.34;4978078;28;20214;-63
2022/11/20 08:36:28;;;;;;;1999.90;999.90;;;;;;;7.34;100.00;94798.94;4978378;28;20184;-62
2022/11/20 08:38:55;;;;;;;1999.90;999.90;;;;;;;7.33;100.00;94802.03;4978400;28;20200;-63
2022/11/20 08:41:23;;;;;;;1999.90;999.90;;;;;;;7.36;100.00;94806.69;4977995;28;20178;-59
2022/11/20 08:43:57;;;;;;;1999.90;999.90;;;;;;;7.47;100.00;94805.44;4978061;28;20181;-59
2022/11/20 08:46:24;;;;;;;1999.90;999.90;;;;;;;7.53;100.00;94808.50;4979238;28;20168;-59
2022/11/20 08:48:50;;;;;;;1999.90;999.90;;;;;;;7.53;100.00;94809.28;4978606;28;20216;-60
2022/11/20 08:51:16;;;;;;;1999.90;999.90;;;;;;;7.68;100.00;94808.00;4978738;28;20199;-60
2022/11/20 08:53:41;;;;;;;1999.90;999.90;;;;;;;7.72;100.00;94813.44;4977741;28;20206;-60
2022/11/20 08:56:07;;;;;;;1999.90;999.90;;;;;;;7.84;100.00;94819.19;4978860;28;20274;-60
2022/11/20 08:58:32;;;;;;;1999.90;999.90;;;;;;;7.91;100.00;94813.69;4978455;28;20171;-62
2022/11/20 09:00:58;;;;;;;1999.90;999.90;;;;;;;7.96;100.00;94815.19;4977975;28;20182;-62
2022/11/20 09:03:23;;;;;;;1999.90;999.90;;;;;;;8.01;100.00;94820.22;4978661;28;20214;-61
2022/11/20 09:05:49;;;;;;;1999.90;999.90;;;;;;;7.97;100.00;94817.50;4978069;28;20215;-60
2022/11/20 09:08:14;;;;;;;1999.90;999.90;;;;;;;8.06;100.00;94823.28;4977861;28;20185;-61
2022/11/20 09:10:39;;;;;;;1999.90;999.90;;;;;;;7.98;100.00;94813.59;4976905;28;20172;-62
2022/11/20 09:13:05;;;;;;;1999.90;999.90;;;;;;;7.96;100.00;94815.97;4978066;28;20287;-60
2022/11/20 09:15:31;;;;;;;1999.90;999.90;;;;;;;8.00;100.00;94816.72;4977679;28;20171;-61
2022/11/20 09:17:59;;;;;;;1999.90;999.90;;;;;;;7.99;100.00;94809.75;4978301;28;20194;-60
2022/11/20 09:20:28;;;;;;;1999.90;999.90;;;;;;;8.01;100.00;94818.25;4977839;28;20198;-61
2022/11/20 09:22:54;;;;;;;1999.90;999.90;;;;;;;8.00;100.00;94813.22;4978223;28;20297;-59
2022/11/20 09:25:20;;;;;;;1999.90;999.90;;;;;;;8.06;100.00;94815.13;4977971;28;20207;-61
2022/11/20 09:27:46;;;;;;;1999.90;999.90;;;;;;;8.08;100.00;94809.28;4977921;28;20184;-60
2022/11/20 09:30:14;;;;;;;1999.90;999.90;;;;;;;8.16;100.00;94819.69;4978402;28;20175;-59
2022/11/20 09:32:40;;;;;;;1999.90;999.90;;;;;;;8.32;100.00;94817.25;4978545;28;20205;-60
2022/11/20 09:35:06;;;;;;;1999.90;999.90;;;;;;;8.35;100.00;94816.47;4978310;28;20180;-59
2022/11/20 09:37:31;;;;;;;1999.90;999.90;;;;;;;8.50;100.00;94823.31;4977855;28;20242;-60
2022/11/20 09:39:57;;;;;;;1999.90;999.90;;;;;;;8.54;100.00;94812.38;4977926;28;20183;-60
2022/11/20 09:42:39;;;;;;;1999.90;999.90;;;;;;;8.63;100.00;94816.16;4977561;28;20243;-60
2022/11/20 09:45:23;;;;;;;1999.90;999.90;;;;;;;8.72;100.00;94808.31;4978216;28;20587;-60
2022/11/20 09:48:18;;;;;;;1999.90;999.90;;;;;;;8.77;100.00;94821.47;4977531;28;20307;-60
2022/11/20 09:51:13;;;;;;;1999.90;999.90;;;;;;;8.59;100.00;94809.19;4977624;28;20184;-59
2022/11/20 09:53:42;;;;;;;1999.90;999.90;;;;;;;8.78;100.00;94812.09;4977463;28;20171;-64
2022/11/20 09:56:10;;;;;;;1999.90;999.90;;;;;;;8.79;100.00;94808.22;4978086;28;20215;-62
2022/11/20 09:58:41;;;;;;;1999.90;999.90;;;;;;;8.78;100.00;94812.09;4977444;28;20184;-62
2022/11/20 10:01:31;;;;;;;1999.90;999.90;;;;;;;8.78;100.00;94806.66;4977166;28;20201;-64
2022/11/20 10:04:02;;;;;;;1999.90;999.90;;;;;;;8.95;100.00;94804.91;4977473;28;20200;-63
2022/11/20 10:06:37;;;;;;;1999.90;999.90;;;;;;;9.57;100.00;94808.78;4977856;28;20164;-64
2022/11/20 10:09:12;;;;;;;1999.90;999.90;;;;;;;9.94;100.00;94805.13;4978043;28;20164;-65
2022/11/20 10:12:25;;;;;;;1999.90;999.90;;;;;;;9.92;100.00;94799.31;4977133;28;20171;-60
2022/11/20 10:15:07;;;;;;;1999.90;999.90;;;;;;;10.09;100.00;94806.47;4951910;28;20191;-60
2022/11/20 10:17:51;;;;;;;1999.90;999.90;;;;;;;10.43;100.00;94800.84;4977894;28;20165;-59
2022/11/20 10:20:49;;;;;;;1999.90;999.90;;;;;;;10.56;100.00;94796.34;4977472;28;20208;-60
2022/11/20 10:23:31;;;;;;;1999.90;999.90;;;;;;;10.70;100.00;94812.47;4930570;28;20252;-62
2022/11/20 10:26:14;;;;;;;1999.90;999.90;;;;;;;10.75;100.00;94804.56;4980911;28;20527;-61
2022/11/20 10:29:04;;;;;;;1999.90;999.90;;;;;;;10.81;100.00;94807.59;4981450;28;20170;-65
2022/11/20 10:31:50;;;;;;;1999.90;999.90;;;;;;;10.85;100.00;94805.56;4979427;28;20453;-66
2022/11/20 10:34:19;;;;;;;1999.90;999.90;;;;;;;11.29;100.00;94799.59;4980946;28;20440;-65
2022/11/20 10:36:52;;;;;;;1999.90;999.90;;;;;;;11.29;100.00;94808.56;4980693;28;20177;-65
2022/11/20 10:39:20;;;;;;;1999.90;999.90;;;;;;;11.31;100.00;94810.88;4980322;28;20177;-64
2022/11/20 10:41:50;;;;;;;1999.90;999.90;;;;;;;11.14;100.00;94814.75;4980734;28;20263;-64
2022/11/20 10:47:10;;;;;;;1999.90;999.90;;;;;;;10.83;100.00;94810.66;4998013;28;20192;-61
2022/11/20 10:49:35;;;;;;;1999.90;999.90;;;;;;;10.78;100.00;94802.94;4980706;28;20184;-60
2022/11/20 10:52:10;;;;;;;1999.90;999.90;;;;;;;10.94;100.00;94805.75;4980149;28;20268;-59
2022/11/20 10:55:02;;;;;;;1999.90;999.90;;;;;;;10.71;100.00;94803.84;4980284;28;20240;-60
2022/11/20 10:57:54;;;;;;;1999.90;999.90;;;;;;;10.71;100.00;94792.16;4980653;28;20189;-58
2022/11/20 11:00:21;;;;;;;1999.90;999.90;;;;;;;10.33;100.00;94801.78;4979764;28;20204;-59
2022/11/20 11:02:51;;;;;;;1999.90;999.90;;;;;;;10.22;100.00;94804.72;4979934;28;20254;-59
2022/11/20 11:05:19;;;;;;;1999.90;999.90;;;;;;;10.28;100.00;94799.56;4980156;28;20253;-65
2022/11/20 11:07:48;;;;;;;1999.90;999.90;;;;;;;10.42;100.00;94796.59;4979832;28;20187;-61